TAF and METAR

METAR for Tabatinga International Airport

SBTT 192100Z 06003KT 9999 -RA FEW005 BKN070 23/21 Q1009
Report created 19. okt 23:00
wind 3 knots from ENE (060°) visibility > 10km light rain some clouds (~25% cover) at 500 feet broken clouds (~75% cover) at 7000 feet Temperature 23° with dewpoint at 21° (Humidity 88.54%) Pressure 1009 hPa
No TAF available for Tabatinga International Airport
Tabatinga International Airport in Brazil at 85m

Latest 5 airports